Bay City, Michigan
Current Conditions -  °F | °C
As of 9:53 PM on Wednesday 26 Nov 2014 (Local Time) from KMBS Reporting Station
Overcast Overcast  
Wind Chill: -1°   Ceiling: 3900
Heat Index: -1°   Visibility: 10mi
Dew Point: -5°   Wind: 3mph
Humidity: 75%   Direction: 330°NNW
Pressure: 30.12"   Gusts: NA
Location:  43.6°N, 83.88°W
Report Text: KMBS 270253Z 33003KT 10SM OVC039 M01/M05 A3012 RMK AO2 SLP207 T10111050 55005
Loading
Personal Weather Stations






























Interactive Weather Map New forecast layout! Learn more

10-Day Weather Forecast

Advertisements
Track Severe Weather on mobile